To NAV CANADA Home Page Login to a new session Search on AWWS site Feedback and Comments Disclaimer Vers la page française équivalente Tips FAQ What's new on the site To the Forecasts and Observations / NOTAM section To "File a Flight Plan" website Publications and other links Update of the User's profile FIC Telephone Numbers My Weather Data Folder Route Weather Data Regional Weather Data Local Weather Data To the Forecasts and Observations / NOTAM section
Request Generated 09/28/2016 at 11:54:03 UTC . Weather information available at that time is displayed.

METAR/TAF

If you find any discrepancies between the coded METAR/TAF and the plain language METAR/TAF please use the coded METAR/TAF. LWIS bulletins are not decoded in plain language.

VANCOUVER INTL/BC    (show WxCam)

METAR CYVR 281100Z 30016G21KT 30SM FEW190 BKN230 12/10 A3013 RMK AC1CI4 SLP203=
METAR
LOCATION
CYVR - VANCOUVER INTL/BC
DATE - TIME
28 SEPTEMBER 2016 - 1100 UTC
WIND
300 TRUE @ 16  KNOTS
GUSTS
21 KNOTS
VISIBILITY
30 STAT.  MILES
RUNWAY VISUAL RANGE
WEATHER
CLOUDINESS
FEW CLOUDS (1/8 - 2/8) 19000  FT
BROKEN CLOUDS (5/8 - 7/8) 23000  FT
TEMP / DEWPOINT
12 C / 10 C
ALTIMETER
30.13 IN HG
RECENT WEATHER
WIND SHEAR

METAR CYVR 281000Z 30016G22KT 30SM SCT190 BKN230 12/11 A3014 RMK AC4CI3 SLP206=
METAR
LOCATION
CYVR - VANCOUVER INTL/BC
DATE - TIME
28 SEPTEMBER 2016 - 1000 UTC
WIND
300 TRUE @ 16  KNOTS
GUSTS
22 KNOTS
VISIBILITY
30 STAT.  MILES
RUNWAY VISUAL RANGE
WEATHER
CLOUDINESS
SCATTERED CLOUDS (3/8 - 4/8) 19000  FT
BROKEN CLOUDS (5/8 - 7/8) 23000  FT
TEMP / DEWPOINT
12 C / 11 C
ALTIMETER
30.14 IN HG
RECENT WEATHER
WIND SHEAR

METAR CYVR 280900Z 30016G21KT 30SM SCT210 OVC230 12/11 A3013 RMK CC4CI4 SLP205=
METAR
LOCATION
CYVR - VANCOUVER INTL/BC
DATE - TIME
28 SEPTEMBER 2016 - 0900 UTC
WIND
300 TRUE @ 16  KNOTS
GUSTS
21 KNOTS
VISIBILITY
30 STAT.  MILES
RUNWAY VISUAL RANGE
WEATHER
CLOUDINESS
SCATTERED CLOUDS (3/8 - 4/8) 21000  FT
OVERCAST 23000  FT
TEMP / DEWPOINT
12 C / 11 C
ALTIMETER
30.13 IN HG
RECENT WEATHER
WIND SHEAR

TAF CYVR 281142Z 2812/2918 30015G25KT P6SM BKN240 FM281800 30012KT P6SM SKC FM290400 30008KT P6SM SKC FM291200 09006KT P6SM SKC RMK NXT FCST BY 281500Z=
TAF
LOCATION

CYVR - VANCOUVER INTL/BC
VALIDITY [UTC]
28 SEP - 1142 to
29 SEP - 1800
 
TIMES
[UTC]
WIND
[DEGREES TRUE]
VISIBILITY
[STAT. MILES]
WEATHER
CLOUDINESS
[FEET AGL]
 
28 SEP - 1200 to
28 SEP - 1800
300 @ 15 KNOTS
GUSTS 25 KNOTS
6+
NIL
24000 BROKEN
 
28 SEP - 1800 to
29 SEP - 0400
300 @ 12 KNOTS
6+
NIL
CLEAR SKY
 
29 SEP - 0400 to
29 SEP - 1200
300 @ 8 KNOTS
6+
NIL
CLEAR SKY
 
29 SEP - 1200 to
29 SEP - 1800
90 @ 6 KNOTS
6+
NIL
CLEAR SKY
REMARKS
THE NEXT FORECAST WILL BE ISSUED BY 1500 UTC ON DAY 28


Your time UTC time
Weather data provided by Environment Canada and NAV CANADA